sensor_id;sensor_type;location;lat;lon;timestamp;pressure;altitude;pressure_sealevel;temperature
18219;BMP180;9234;49.344;11.120;2023-05-23T00:02:17;97145.00;;;16.70
18219;BMP180;9234;49.344;11.120;2023-05-23T00:04:45;97143.00;;;16.70
18219;BMP180;9234;49.344;11.120;2023-05-23T00:07:15;97153.00;;;16.70
18219;BMP180;9234;49.344;11.120;2023-05-23T00:09:43;97146.00;;;16.60
18219;BMP180;9234;49.344;11.120;2023-05-23T00:12:12;97157.00;;;16.60
18219;BMP180;9234;49.344;11.120;2023-05-23T00:14:40;97157.00;;;16.60
18219;BMP180;9234;49.344;11.120;2023-05-23T00:17:08;97162.00;;;16.50
18219;BMP180;9234;49.344;11.120;2023-05-23T00:19:38;97163.00;;;16.50
18219;BMP180;9234;49.344;11.120;2023-05-23T00:22:06;97162.00;;;16.40
18219;BMP180;9234;49.344;11.120;2023-05-23T00:24:36;97170.00;;;16.40
18219;BMP180;9234;49.344;11.120;2023-05-23T00:27:04;97164.00;;;16.40
18219;BMP180;9234;49.344;11.120;2023-05-23T00:29:33;97171.00;;;16.30
18219;BMP180;9234;49.344;11.120;2023-05-23T00:32:01;97172.00;;;16.30
18219;BMP180;9234;49.344;11.120;2023-05-23T00:34:29;97161.00;;;16.20
18219;BMP180;9234;49.344;11.120;2023-05-23T00:36:58;97170.00;;;16.20
18219;BMP180;9234;49.344;11.120;2023-05-23T00:39:28;97174.00;;;16.20
18219;BMP180;9234;49.344;11.120;2023-05-23T00:41:57;97165.00;;;16.20
18219;BMP180;9234;49.344;11.120;2023-05-23T00:44:26;97169.00;;;16.10
18219;BMP180;9234;49.344;11.120;2023-05-23T00:46:56;97174.00;;;16.10
18219;BMP180;9234;49.344;11.120;2023-05-23T00:49:26;97179.00;;;16.10
18219;BMP180;9234;49.344;11.120;2023-05-23T00:51:55;97171.00;;;16.10
18219;BMP180;9234;49.344;11.120;2023-05-23T00:54:28;97173.00;;;16.00
18219;BMP180;9234;49.344;11.120;2023-05-23T00:56:59;97174.00;;;16.00
18219;BMP180;9234;49.344;11.120;2023-05-23T00:59:28;97171.00;;;16.00
18219;BMP180;9234;49.344;11.120;2023-05-23T01:01:57;97169.00;;;16.00
18219;BMP180;9234;49.344;11.120;2023-05-23T01:04:27;97184.00;;;15.90
18219;BMP180;9234;49.344;11.120;2023-05-23T01:06:56;97179.00;;;15.90
18219;BMP180;9234;49.344;11.120;2023-05-23T01:09:27;97173.00;;;15.90
18219;BMP180;9234;49.344;11.120;2023-05-23T01:12:13;97180.00;;;15.90
18219;BMP180;9234;49.344;11.120;2023-05-23T01:14:50;97183.00;;;15.90
18219;BMP180;9234;49.344;11.120;2023-05-23T01:17:32;97188.00;;;15.80
18219;BMP180;9234;49.344;11.120;2023-05-23T01:20:06;97185.00;;;15.80
18219;BMP180;9234;49.344;11.120;2023-05-23T01:23:01;97183.00;;;15.80
18219;BMP180;9234;49.344;11.120;2023-05-23T01:25:47;97181.00;;;15.80
18219;BMP180;9234;49.344;11.120;2023-05-23T01:28:26;97176.00;;;15.80
18219;BMP180;9234;49.344;11.120;2023-05-23T01:30:58;97179.00;;;15.80
18219;BMP180;9234;49.344;11.120;2023-05-23T01:33:31;97178.00;;;15.80
18219;BMP180;9234;49.344;11.120;2023-05-23T01:36:01;97169.00;;;15.70
18219;BMP180;9234;49.344;11.120;2023-05-23T01:38:30;97178.00;;;15.70
18219;BMP180;9234;49.344;11.120;2023-05-23T01:40:59;97170.00;;;15.70
18219;BMP180;9234;49.344;11.120;2023-05-23T01:43:29;97174.00;;;15.80
18219;BMP180;9234;49.344;11.120;2023-05-23T01:46:00;97158.00;;;15.80
18219;BMP180;9234;49.344;11.120;2023-05-23T01:48:29;97161.00;;;15.80
18219;BMP180;9234;49.344;11.120;2023-05-23T01:50:58;97163.00;;;15.80
18219;BMP180;9234;49.344;11.120;2023-05-23T01:53:27;97168.00;;;15.90
18219;BMP180;9234;49.344;11.120;2023-05-23T01:55:58;97173.00;;;15.90
18219;BMP180;9234;49.344;11.120;2023-05-23T01:58:30;97173.00;;;16.00
18219;BMP180;9234;49.344;11.120;2023-05-23T02:00:59;97176.00;;;16.00
18219;BMP180;9234;49.344;11.120;2023-05-23T02:03:29;97169.00;;;16.00
18219;BMP180;9234;49.344;11.120;2023-05-23T02:05:57;97171.00;;;16.10
18219;BMP180;9234;49.344;11.120;2023-05-23T02:08:26;97172.00;;;16.10
18219;BMP180;9234;49.344;11.120;2023-05-23T02:10:55;97169.00;;;16.20
18219;BMP180;9234;49.344;11.120;2023-05-23T02:13:23;97171.00;;;16.20
18219;BMP180;9234;49.344;11.120;2023-05-23T02:15:53;97182.00;;;16.20
18219;BMP180;9234;49.344;11.120;2023-05-23T02:18:21;97185.00;;;16.30
18219;BMP180;9234;49.344;11.120;2023-05-23T02:20:52;97179.00;;;16.30
18219;BMP180;9234;49.344;11.120;2023-05-23T02:23:20;97180.00;;;16.30
18219;BMP180;9234;49.344;11.120;2023-05-23T02:25:48;97169.00;;;16.30
18219;BMP180;9234;49.344;11.120;2023-05-23T02:28:16;97180.00;;;16.30
18219;BMP180;9234;49.344;11.120;2023-05-23T02:30:45;97182.00;;;16.30
18219;BMP180;9234;49.344;11.120;2023-05-23T02:33:14;97186.00;;;16.30
18219;BMP180;9234;49.344;11.120;2023-05-23T02:35:43;97170.00;;;16.30
18219;BMP180;9234;49.344;11.120;2023-05-23T02:38:12;97183.00;;;16.30
18219;BMP180;9234;49.344;11.120;2023-05-23T02:40:41;97175.00;;;16.30
18219;BMP180;9234;49.344;11.120;2023-05-23T02:43:09;97175.00;;;16.30
18219;BMP180;9234;49.344;11.120;2023-05-23T02:45:37;97171.00;;;16.30
18219;BMP180;9234;49.344;11.120;2023-05-23T02:48:06;97176.00;;;16.30
18219;BMP180;9234;49.344;11.120;2023-05-23T02:50:36;97178.00;;;16.40
18219;BMP180;9234;49.344;11.120;2023-05-23T02:53:04;97186.00;;;16.40
18219;BMP180;9234;49.344;11.120;2023-05-23T02:55:32;97172.00;;;16.40
18219;BMP180;9234;49.344;11.120;2023-05-23T02:58:01;97183.00;;;16.40
18219;BMP180;9234;49.344;11.120;2023-05-23T03:00:31;97190.00;;;16.40
18219;BMP180;9234;49.344;11.120;2023-05-23T03:03:00;97191.00;;;16.40
18219;BMP180;9234;49.344;11.120;2023-05-23T03:05:29;97197.00;;;16.40
18219;BMP180;9234;49.344;11.120;2023-05-23T03:07:58;97196.00;;;16.40
18219;BMP180;9234;49.344;11.120;2023-05-23T03:10:27;97192.00;;;16.40
18219;BMP180;9234;49.344;11.120;2023-05-23T03:12:55;97199.00;;;16.40
18219;BMP180;9234;49.344;11.120;2023-05-23T03:15:23;97194.00;;;16.30
18219;BMP180;9234;49.344;11.120;2023-05-23T03:17:51;97194.00;;;16.30
18219;BMP180;9234;49.344;11.120;2023-05-23T03:20:20;97200.00;;;16.30
18219;BMP180;9234;49.344;11.120;2023-05-23T03:22:48;97212.00;;;16.30
18219;BMP180;9234;49.344;11.120;2023-05-23T03:25:18;97209.00;;;16.20
18219;BMP180;9234;49.344;11.120;2023-05-23T03:27:46;97205.00;;;16.20
18219;BMP180;9234;49.344;11.120;2023-05-23T03:30:15;97202.00;;;16.10
18219;BMP180;9234;49.344;11.120;2023-05-23T03:32:43;97220.00;;;16.10
18219;BMP180;9234;49.344;11.120;2023-05-23T03:35:12;97204.00;;;16.10
18219;BMP180;9234;49.344;11.120;2023-05-23T03:37:40;97196.00;;;16.00
18219;BMP180;9234;49.344;11.120;2023-05-23T03:40:09;97204.00;;;16.00
18219;BMP180;9234;49.344;11.120;2023-05-23T03:42:39;97201.00;;;16.00
18219;BMP180;9234;49.344;11.120;2023-05-23T03:45:09;97217.00;;;16.00
18219;BMP180;9234;49.344;11.120;2023-05-23T03:47:38;97221.00;;;15.90
18219;BMP180;9234;49.344;11.120;2023-05-23T03:50:07;97215.00;;;15.90
18219;BMP180;9234;49.344;11.120;2023-05-23T03:52:36;97221.00;;;15.90
18219;BMP180;9234;49.344;11.120;2023-05-23T03:55:09;97229.00;;;15.90
18219;BMP180;9234;49.344;11.120;2023-05-23T03:57:39;97232.00;;;15.90
18219;BMP180;9234;49.344;11.120;2023-05-23T04:00:09;97226.00;;;15.80
18219;BMP180;9234;49.344;11.120;2023-05-23T04:02:42;97238.00;;;15.80
18219;BMP180;9234;49.344;11.120;2023-05-23T04:05:15;97235.00;;;15.80
18219;BMP180;9234;49.344;11.120;2023-05-23T04:07:45;97232.00;;;15.90
18219;BMP180;9234;49.344;11.120;2023-05-23T04:10:14;97222.00;;;15.90
18219;BMP180;9234;49.344;11.120;2023-05-23T04:12:43;97233.00;;;15.90
18219;BMP180;9234;49.344;11.120;2023-05-23T04:15:17;97232.00;;;16.00
18219;BMP180;9234;49.344;11.120;2023-05-23T04:17:52;97228.00;;;16.10
18219;BMP180;9234;49.344;11.120;2023-05-23T04:20:20;97232.00;;;16.20
18219;BMP180;9234;49.344;11.120;2023-05-23T04:22:49;97240.00;;;16.30
18219;BMP180;9234;49.344;11.120;2023-05-23T04:25:17;97235.00;;;16.40
18219;BMP180;9234;49.344;11.120;2023-05-23T04:28:02;97244.00;;;16.50
18219;BMP180;9234;49.344;11.120;2023-05-23T04:30:31;97242.00;;;16.70
18219;BMP180;9234;49.344;11.120;2023-05-23T04:33:00;97236.00;;;16.80
18219;BMP180;9234;49.344;11.120;2023-05-23T04:35:29;97252.00;;;16.90
18219;BMP180;9234;49.344;11.120;2023-05-23T04:38:00;97262.00;;;17.10
18219;BMP180;9234;49.344;11.120;2023-05-23T04:40:30;97245.00;;;17.20
18219;BMP180;9234;49.344;11.120;2023-05-23T04:43:20;97252.00;;;17.30
18219;BMP180;9234;49.344;11.120;2023-05-23T04:45:56;97249.00;;;17.50
18219;BMP180;9234;49.344;11.120;2023-05-23T04:48:34;97260.00;;;17.60
18219;BMP180;9234;49.344;11.120;2023-05-23T04:51:03;97273.00;;;17.70
18219;BMP180;9234;49.344;11.120;2023-05-23T04:53:37;97262.00;;;17.70
18219;BMP180;9234;49.344;11.120;2023-05-23T04:56:08;97253.00;;;17.80
18219;BMP180;9234;49.344;11.120;2023-05-23T04:58:39;97267.00;;;17.90
18219;BMP180;9234;49.344;11.120;2023-05-23T05:01:10;97277.00;;;17.90
18219;BMP180;9234;49.344;11.120;2023-05-23T05:03:39;97261.00;;;18.00
18219;BMP180;9234;49.344;11.120;2023-05-23T05:06:08;97262.00;;;18.00
18219;BMP180;9234;49.344;11.120;2023-05-23T05:08:36;97269.00;;;18.00
18219;BMP180;9234;49.344;11.120;2023-05-23T05:11:08;97274.00;;;18.00
18219;BMP180;9234;49.344;11.120;2023-05-23T05:13:40;97280.00;;;17.90
18219;BMP180;9234;49.344;11.120;2023-05-23T05:16:08;97275.00;;;18.00
18219;BMP180;9234;49.344;11.120;2023-05-23T05:18:38;97284.00;;;18.00
18219;BMP180;9234;49.344;11.120;2023-05-23T05:21:06;97277.00;;;18.00
18219;BMP180;9234;49.344;11.120;2023-05-23T05:23:36;97286.00;;;18.00
18219;BMP180;9234;49.344;11.120;2023-05-23T05:26:06;97288.00;;;18.10
18219;BMP180;9234;49.344;11.120;2023-05-23T05:28:35;97297.00;;;18.20
18219;BMP180;9234;49.344;11.120;2023-05-23T05:31:05;97296.00;;;18.30
18219;BMP180;9234;49.344;11.120;2023-05-23T05:33:35;97300.00;;;18.40
18219;BMP180;9234;49.344;11.120;2023-05-23T05:36:08;97300.00;;;18.50
18219;BMP180;9234;49.344;11.120;2023-05-23T05:38:37;97302.00;;;18.50
18219;BMP180;9234;49.344;11.120;2023-05-23T05:41:06;97297.00;;;18.60
18219;BMP180;9234;49.344;11.120;2023-05-23T05:43:39;97299.00;;;18.70
18219;BMP180;9234;49.344;11.120;2023-05-23T05:46:10;97288.00;;;18.80
18219;BMP180;9234;49.344;11.120;2023-05-23T05:48:39;97297.00;;;18.90
18219;BMP180;9234;49.344;11.120;2023-05-23T05:51:11;97299.00;;;18.90
18219;BMP180;9234;49.344;11.120;2023-05-23T05:53:40;97302.00;;;18.90
18219;BMP180;9234;49.344;11.120;2023-05-23T05:56:08;97289.00;;;18.90
18219;BMP180;9234;49.344;11.120;2023-05-23T05:58:38;97306.00;;;18.80
18219;BMP180;9234;49.344;11.120;2023-05-23T06:01:09;97303.00;;;18.80
18219;BMP180;9234;49.344;11.120;2023-05-23T06:03:38;97296.00;;;18.80
18219;BMP180;9234;49.344;11.120;2023-05-23T06:06:07;97294.00;;;18.90
18219;BMP180;9234;49.344;11.120;2023-05-23T06:08:38;97298.00;;;18.90
18219;BMP180;9234;49.344;11.120;2023-05-23T06:11:10;97297.00;;;19.00
18219;BMP180;9234;49.344;11.120;2023-05-23T06:13:39;97302.00;;;19.00
18219;BMP180;9234;49.344;11.120;2023-05-23T06:16:08;97305.00;;;19.10
18219;BMP180;9234;49.344;11.120;2023-05-23T06:18:38;97303.00;;;19.20
18219;BMP180;9234;49.344;11.120;2023-05-23T06:21:08;97303.00;;;19.30
18219;BMP180;9234;49.344;11.120;2023-05-23T06:23:37;97311.00;;;19.30
18219;BMP180;9234;49.344;11.120;2023-05-23T06:26:05;97294.00;;;19.40
18219;BMP180;9234;49.344;11.120;2023-05-23T06:28:37;97300.00;;;19.40
18219;BMP180;9234;49.344;11.120;2023-05-23T06:31:06;97300.00;;;19.50
18219;BMP180;9234;49.344;11.120;2023-05-23T06:33:37;97287.00;;;19.60
18219;BMP180;9234;49.344;11.120;2023-05-23T06:36:06;97309.00;;;19.70
18219;BMP180;9234;49.344;11.120;2023-05-23T06:38:34;97308.00;;;19.80
18219;BMP180;9234;49.344;11.120;2023-05-23T06:41:03;97300.00;;;19.80
18219;BMP180;9234;49.344;11.120;2023-05-23T06:43:34;97310.00;;;19.90
18219;BMP180;9234;49.344;11.120;2023-05-23T06:46:12;97306.00;;;20.00
18219;BMP180;9234;49.344;11.120;2023-05-23T06:48:42;97307.00;;;20.10
18219;BMP180;9234;49.344;11.120;2023-05-23T06:51:11;97318.00;;;20.20
18219;BMP180;9234;49.344;11.120;2023-05-23T06:53:40;97313.00;;;20.30
18219;BMP180;9234;49.344;11.120;2023-05-23T06:56:09;97320.00;;;20.40
18219;BMP180;9234;49.344;11.120;2023-05-23T06:58:48;97309.00;;;20.70
18219;BMP180;9234;49.344;11.120;2023-05-23T07:01:16;97313.00;;;20.90
18219;BMP180;9234;49.344;11.120;2023-05-23T07:03:49;97333.00;;;21.00
18219;BMP180;9234;49.344;11.120;2023-05-23T07:06:17;97317.00;;;21.10
18219;BMP180;9234;49.344;11.120;2023-05-23T07:08:45;97322.00;;;21.20
18219;BMP180;9234;49.344;11.120;2023-05-23T07:11:15;97325.00;;;21.30
18219;BMP180;9234;49.344;11.120;2023-05-23T07:13:48;97334.00;;;21.30
18219;BMP180;9234;49.344;11.120;2023-05-23T07:16:22;97339.00;;;21.40
18219;BMP180;9234;49.344;11.120;2023-05-23T07:19:00;97338.00;;;21.50
18219;BMP180;9234;49.344;11.120;2023-05-23T07:21:29;97334.00;;;21.60
18219;BMP180;9234;49.344;11.120;2023-05-23T07:23:59;97343.00;;;21.70
18219;BMP180;9234;49.344;11.120;2023-05-23T07:26:28;97335.00;;;21.70
18219;BMP180;9234;49.344;11.120;2023-05-23T07:28:57;97338.00;;;21.70
18219;BMP180;9234;49.344;11.120;2023-05-23T07:31:26;97350.00;;;21.70
18219;BMP180;9234;49.344;11.120;2023-05-23T07:33:58;97341.00;;;21.80
18219;BMP180;9234;49.344;11.120;2023-05-23T07:36:34;97334.00;;;21.90
18219;BMP180;9234;49.344;11.120;2023-05-23T07:39:06;97354.00;;;22.00
18219;BMP180;9234;49.344;11.120;2023-05-23T07:41:34;97340.00;;;22.00
18219;BMP180;9234;49.344;11.120;2023-05-23T07:44:02;97354.00;;;22.00
18219;BMP180;9234;49.344;11.120;2023-05-23T07:46:31;97349.00;;;21.90
18219;BMP180;9234;49.344;11.120;2023-05-23T07:49:00;97354.00;;;21.80
18219;BMP180;9234;49.344;11.120;2023-05-23T07:51:28;97351.00;;;21.80
18219;BMP180;9234;49.344;11.120;2023-05-23T07:53:58;97353.00;;;21.80
18219;BMP180;9234;49.344;11.120;2023-05-23T07:56:27;97359.00;;;21.80
18219;BMP180;9234;49.344;11.120;2023-05-23T07:58:55;97361.00;;;21.80
18219;BMP180;9234;49.344;11.120;2023-05-23T08:01:23;97363.00;;;21.70
18219;BMP180;9234;49.344;11.120;2023-05-23T08:03:52;97366.00;;;21.60
18219;BMP180;9234;49.344;11.120;2023-05-23T08:06:28;97360.00;;;21.50
18219;BMP180;9234;49.344;11.120;2023-05-23T08:09:00;97373.00;;;21.40
18219;BMP180;9234;49.344;11.120;2023-05-23T08:11:30;97362.00;;;21.20
18219;BMP180;9234;49.344;11.120;2023-05-23T08:14:00;97367.00;;;21.10
18219;BMP180;9234;49.344;11.120;2023-05-23T08:16:48;97384.00;;;20.90
18219;BMP180;9234;49.344;11.120;2023-05-23T08:19:21;97382.00;;;20.90
18219;BMP180;9234;49.344;11.120;2023-05-23T08:21:51;97379.00;;;20.90
18219;BMP180;9234;49.344;11.120;2023-05-23T08:24:20;97367.00;;;20.90
18219;BMP180;9234;49.344;11.120;2023-05-23T08:26:49;97374.00;;;21.10
18219;BMP180;9234;49.344;11.120;2023-05-23T08:29:17;97368.00;;;21.30
18219;BMP180;9234;49.344;11.120;2023-05-23T08:31:46;97367.00;;;21.60
18219;BMP180;9234;49.344;11.120;2023-05-23T08:34:15;97372.00;;;21.90
18219;BMP180;9234;49.344;11.120;2023-05-23T08:36:43;97365.00;;;22.40
18219;BMP180;9234;49.344;11.120;2023-05-23T08:39:18;97358.00;;;22.60
18219;BMP180;9234;49.344;11.120;2023-05-23T08:41:55;97378.00;;;22.70
18219;BMP180;9234;49.344;11.120;2023-05-23T08:44:24;97370.00;;;22.70
18219;BMP180;9234;49.344;11.120;2023-05-23T08:47:01;97372.00;;;22.80
18219;BMP180;9234;49.344;11.120;2023-05-23T08:49:54;97378.00;;;23.20
18219;BMP180;9234;49.344;11.120;2023-05-23T08:52:26;97379.00;;;23.40
18219;BMP180;9234;49.344;11.120;2023-05-23T08:55:00;97375.00;;;23.40
18219;BMP180;9234;49.344;11.120;2023-05-23T08:57:30;97379.00;;;23.50
18219;BMP180;9234;49.344;11.120;2023-05-23T09:00:10;97377.00;;;23.60
18219;BMP180;9234;49.344;11.120;2023-05-23T09:02:43;97376.00;;;23.50
18219;BMP180;9234;49.344;11.120;2023-05-23T09:05:35;97399.00;;;23.30
18219;BMP180;9234;49.344;11.120;2023-05-23T09:08:04;97388.00;;;23.20
18219;BMP180;9234;49.344;11.120;2023-05-23T09:10:33;97392.00;;;23.10
18219;BMP180;9234;49.344;11.120;2023-05-23T09:13:04;97396.00;;;23.20
18219;BMP180;9234;49.344;11.120;2023-05-23T09:15:33;97395.00;;;23.30
18219;BMP180;9234;49.344;11.120;2023-05-23T09:18:03;97392.00;;;23.70
18219;BMP180;9234;49.344;11.120;2023-05-23T09:20:33;97398.00;;;23.80
18219;BMP180;9234;49.344;11.120;2023-05-23T09:23:08;97397.00;;;23.80
18219;BMP180;9234;49.344;11.120;2023-05-23T09:25:47;97394.00;;;23.70
18219;BMP180;9234;49.344;11.120;2023-05-23T09:28:16;97405.00;;;23.70
18219;BMP180;9234;49.344;11.120;2023-05-23T09:30:45;97393.00;;;23.60
18219;BMP180;9234;49.344;11.120;2023-05-23T09:33:13;97403.00;;;23.60
18219;BMP180;9234;49.344;11.120;2023-05-23T09:35:43;97396.00;;;23.70
18219;BMP180;9234;49.344;11.120;2023-05-23T09:38:12;97394.00;;;23.80
18219;BMP180;9234;49.344;11.120;2023-05-23T09:40:46;97405.00;;;23.80
18219;BMP180;9234;49.344;11.120;2023-05-23T09:43:16;97404.00;;;23.50
18219;BMP180;9234;49.344;11.120;2023-05-23T09:45:49;97414.00;;;23.50
18219;BMP180;9234;49.344;11.120;2023-05-23T09:48:17;97412.00;;;23.60
18219;BMP180;9234;49.344;11.120;2023-05-23T09:50:46;97411.00;;;23.70
18219;BMP180;9234;49.344;11.120;2023-05-23T09:53:18;97417.00;;;23.90
18219;BMP180;9234;49.344;11.120;2023-05-23T09:55:51;97412.00;;;24.00
18219;BMP180;9234;49.344;11.120;2023-05-23T09:58:22;97415.00;;;24.40
18219;BMP180;9234;49.344;11.120;2023-05-23T10:00:56;97417.00;;;24.60
18219;BMP180;9234;49.344;11.120;2023-05-23T10:03:32;97426.00;;;24.70
18219;BMP180;9234;49.344;11.120;2023-05-23T10:06:11;97425.00;;;25.00
18219;BMP180;9234;49.344;11.120;2023-05-23T10:08:49;97426.00;;;25.30
18219;BMP180;9234;49.344;11.120;2023-05-23T10:14:54;97435.00;;;25.30
18219;BMP180;9234;49.344;11.120;2023-05-23T10:17:34;97430.00;;;25.10
18219;BMP180;9234;49.344;11.120;2023-05-23T10:20:09;97429.00;;;25.20
18219;BMP180;9234;49.344;11.120;2023-05-23T10:22:40;97423.00;;;25.30
18219;BMP180;9234;49.344;11.120;2023-05-23T10:25:09;97418.00;;;25.30
18219;BMP180;9234;49.344;11.120;2023-05-23T10:27:39;97422.00;;;25.50
18219;BMP180;9234;49.344;11.120;2023-05-23T10:30:11;97434.00;;;25.40
18219;BMP180;9234;49.344;11.120;2023-05-23T10:32:41;97435.00;;;25.50
18219;BMP180;9234;49.344;11.120;2023-05-23T10:35:20;97433.00;;;25.50
18219;BMP180;9234;49.344;11.120;2023-05-23T10:37:59;97443.00;;;25.50
18219;BMP180;9234;49.344;11.120;2023-05-23T10:40:45;97435.00;;;25.20
18219;BMP180;9234;49.344;11.120;2023-05-23T10:43:24;97446.00;;;25.10
18219;BMP180;9234;49.344;11.120;2023-05-23T10:45:54;97446.00;;;25.00
18219;BMP180;9234;49.344;11.120;2023-05-23T10:48:34;97468.00;;;25.00
18219;BMP180;9234;49.344;11.120;2023-05-23T10:51:04;97459.00;;;25.00
18219;BMP180;9234;49.344;11.120;2023-05-23T10:53:35;97454.00;;;24.90
18219;BMP180;9234;49.344;11.120;2023-05-23T10:56:05;97457.00;;;24.70
18219;BMP180;9234;49.344;11.120;2023-05-23T10:58:36;97455.00;;;24.50
18219;BMP180;9234;49.344;11.120;2023-05-23T11:01:09;97458.00;;;24.50
18219;BMP180;9234;49.344;11.120;2023-05-23T11:03:50;97445.00;;;24.60
18219;BMP180;9234;49.344;11.120;2023-05-23T11:06:30;97459.00;;;24.80
18219;BMP180;9234;49.344;11.120;2023-05-23T11:09:05;97464.00;;;24.50
18219;BMP180;9234;49.344;11.120;2023-05-23T11:12:00;97460.00;;;24.30
18219;BMP180;9234;49.344;11.120;2023-05-23T11:14:40;97465.00;;;24.30
18219;BMP180;9234;49.344;11.120;2023-05-23T11:17:32;97461.00;;;24.30
18219;BMP180;9234;49.344;11.120;2023-05-23T11:20:06;97456.00;;;24.30
18219;BMP180;9234;49.344;11.120;2023-05-23T11:22:36;97467.00;;;24.40
18219;BMP180;9234;49.344;11.120;2023-05-23T11:25:07;97456.00;;;24.70
18219;BMP180;9234;49.344;11.120;2023-05-23T11:27:37;97469.00;;;25.10
18219;BMP180;9234;49.344;11.120;2023-05-23T11:30:09;97468.00;;;25.40
18219;BMP180;9234;49.344;11.120;2023-05-23T11:32:41;97464.00;;;25.50
18219;BMP180;9234;49.344;11.120;2023-05-23T11:35:17;97466.00;;;25.30
18219;BMP180;9234;49.344;11.120;2023-05-23T11:37:46;97469.00;;;25.30
18219;BMP180;9234;49.344;11.120;2023-05-23T11:40:27;97468.00;;;25.30
18219;BMP180;9234;49.344;11.120;2023-05-23T11:42:56;97467.00;;;25.40
18219;BMP180;9234;49.344;11.120;2023-05-23T11:45:28;97463.00;;;25.70
18219;BMP180;9234;49.344;11.120;2023-05-23T11:48:05;97469.00;;;25.90
18219;BMP180;9234;49.344;11.120;2023-05-23T11:50:42;97462.00;;;25.80
18219;BMP180;9234;49.344;11.120;2023-05-23T11:53:11;97454.00;;;25.90
18219;BMP180;9234;49.344;11.120;2023-05-23T11:55:50;97463.00;;;26.10
18219;BMP180;9234;49.344;11.120;2023-05-23T11:58:21;97454.00;;;26.20
18219;BMP180;9234;49.344;11.120;2023-05-23T12:00:50;97458.00;;;26.40
18219;BMP180;9234;49.344;11.120;2023-05-23T12:03:22;97455.00;;;26.40
18219;BMP180;9234;49.344;11.120;2023-05-23T12:05:51;97443.00;;;26.20
18219;BMP180;9234;49.344;11.120;2023-05-23T12:08:19;97451.00;;;26.40
18219;BMP180;9234;49.344;11.120;2023-05-23T12:10:52;97456.00;;;26.40
18219;BMP180;9234;49.344;11.120;2023-05-23T12:13:24;97457.00;;;26.30
18219;BMP180;9234;49.344;11.120;2023-05-23T12:15:54;97456.00;;;26.10
18219;BMP180;9234;49.344;11.120;2023-05-23T12:18:28;97462.00;;;26.20
18219;BMP180;9234;49.344;11.120;2023-05-23T12:20:59;97471.00;;;26.40
18219;BMP180;9234;49.344;11.120;2023-05-23T12:23:29;97462.00;;;26.50
18219;BMP180;9234;49.344;11.120;2023-05-23T12:26:04;97467.00;;;26.40
18219;BMP180;9234;49.344;11.120;2023-05-23T12:28:35;97465.00;;;26.10
18219;BMP180;9234;49.344;11.120;2023-05-23T12:31:12;97462.00;;;25.70
18219;BMP180;9234;49.344;11.120;2023-05-23T12:33:44;97455.00;;;25.30
18219;BMP180;9234;49.344;11.120;2023-05-23T12:36:21;97465.00;;;24.90
18219;BMP180;9234;49.344;11.120;2023-05-23T12:38:50;97468.00;;;24.60
18219;BMP180;9234;49.344;11.120;2023-05-23T12:41:19;97470.00;;;24.50
18219;BMP180;9234;49.344;11.120;2023-05-23T12:43:49;97460.00;;;24.50
18219;BMP180;9234;49.344;11.120;2023-05-23T12:46:19;97467.00;;;24.60
18219;BMP180;9234;49.344;11.120;2023-05-23T12:48:49;97468.00;;;24.60
18219;BMP180;9234;49.344;11.120;2023-05-23T12:51:18;97462.00;;;24.90
18219;BMP180;9234;49.344;11.120;2023-05-23T12:53:47;97464.00;;;25.10
18219;BMP180;9234;49.344;11.120;2023-05-23T12:56:15;97452.00;;;25.50
18219;BMP180;9234;49.344;11.120;2023-05-23T12:58:44;97451.00;;;25.70
18219;BMP180;9234;49.344;11.120;2023-05-23T13:01:12;97469.00;;;25.70
18219;BMP180;9234;49.344;11.120;2023-05-23T13:03:41;97460.00;;;25.30
18219;BMP180;9234;49.344;11.120;2023-05-23T13:06:11;97465.00;;;25.20
18219;BMP180;9234;49.344;11.120;2023-05-23T13:08:39;97471.00;;;25.00
18219;BMP180;9234;49.344;11.120;2023-05-23T13:11:08;97464.00;;;24.60
18219;BMP180;9234;49.344;11.120;2023-05-23T13:13:36;97471.00;;;24.30
18219;BMP180;9234;49.344;11.120;2023-05-23T13:16:05;97470.00;;;24.00
18219;BMP180;9234;49.344;11.120;2023-05-23T13:18:34;97479.00;;;23.70
18219;BMP180;9234;49.344;11.120;2023-05-23T13:21:03;97476.00;;;23.50
18219;BMP180;9234;49.344;11.120;2023-05-23T13:23:32;97476.00;;;23.30
18219;BMP180;9234;49.344;11.120;2023-05-23T13:26:02;97489.00;;;23.10
18219;BMP180;9234;49.344;11.120;2023-05-23T13:28:30;97475.00;;;23.20
18219;BMP180;9234;49.344;11.120;2023-05-23T13:30:59;97475.00;;;23.30
18219;BMP180;9234;49.344;11.120;2023-05-23T13:33:29;97477.00;;;23.60
18219;BMP180;9234;49.344;11.120;2023-05-23T13:35:57;97476.00;;;23.60
18219;BMP180;9234;49.344;11.120;2023-05-23T13:38:26;97496.00;;;23.60
18219;BMP180;9234;49.344;11.120;2023-05-23T13:40:58;97482.00;;;23.60
18219;BMP180;9234;49.344;11.120;2023-05-23T13:43:26;97483.00;;;23.60
18219;BMP180;9234;49.344;11.120;2023-05-23T13:45:54;97481.00;;;23.60
18219;BMP180;9234;49.344;11.120;2023-05-23T13:48:23;97470.00;;;23.60
18219;BMP180;9234;49.344;11.120;2023-05-23T13:50:51;97477.00;;;23.60
18219;BMP180;9234;49.344;11.120;2023-05-23T13:53:19;97482.00;;;23.50
18219;BMP180;9234;49.344;11.120;2023-05-23T13:55:48;97488.00;;;23.40
18219;BMP180;9234;49.344;11.120;2023-05-23T13:58:20;97472.00;;;23.40
18219;BMP180;9234;49.344;11.120;2023-05-23T14:00:48;97485.00;;;23.30
18219;BMP180;9234;49.344;11.120;2023-05-23T14:03:17;97486.00;;;23.30
18219;BMP180;9234;49.344;11.120;2023-05-23T14:05:46;97483.00;;;23.30
18219;BMP180;9234;49.344;11.120;2023-05-23T14:08:14;97483.00;;;23.30
18219;BMP180;9234;49.344;11.120;2023-05-23T14:10:43;97478.00;;;23.40
18219;BMP180;9234;49.344;11.120;2023-05-23T14:13:11;97482.00;;;23.50
18219;BMP180;9234;49.344;11.120;2023-05-23T14:15:41;97480.00;;;23.60
18219;BMP180;9234;49.344;11.120;2023-05-23T14:18:09;97489.00;;;23.70
18219;BMP180;9234;49.344;11.120;2023-05-23T14:20:38;97488.00;;;24.00
18219;BMP180;9234;49.344;11.120;2023-05-23T14:23:06;97488.00;;;24.40
18219;BMP180;9234;49.344;11.120;2023-05-23T14:25:35;97494.00;;;24.80
18219;BMP180;9234;49.344;11.120;2023-05-23T14:28:03;97489.00;;;25.50
18219;BMP180;9234;49.344;11.120;2023-05-23T14:30:31;97485.00;;;26.10
18219;BMP180;9234;49.344;11.120;2023-05-23T14:33:01;97482.00;;;26.30
18219;BMP180;9234;49.344;11.120;2023-05-23T14:35:29;97479.00;;;26.10